createdAt,value
2018-12-26T00:00:03.918Z,112.07
2018-12-26T00:02:11.227Z,123.90
2018-12-26T00:04:18.468Z,138.80
2018-12-26T00:06:25.756Z,117.27
2018-12-26T00:08:32.688Z,124.50
2018-12-26T00:10:39.911Z,128.00
2018-12-26T00:12:48.105Z,123.13
2018-12-26T00:14:55.297Z,115.77
2018-12-26T00:17:02.545Z,113.67
2018-12-26T00:19:09.897Z,112.87
2018-12-26T00:21:17.073Z,110.57
2018-12-26T00:23:24.272Z,105.33
2018-12-26T00:25:52.647Z,114.57
2018-12-26T00:27:59.904Z,106.17
2018-12-26T00:30:20.538Z,103.87
2018-12-26T00:32:29.659Z,119.77
2018-12-26T00:34:38.358Z,110.00
2018-12-26T00:36:47.515Z,114.20
2018-12-26T00:38:54.684Z,104.13
2018-12-26T00:41:03.148Z,101.00
2018-12-26T00:43:12.272Z,117.23
2018-12-26T00:45:20.084Z,120.10
2018-12-26T00:47:27.900Z,128.00
2018-12-26T00:49:35.001Z,120.43
2018-12-26T00:51:44.588Z,112.20
2018-12-26T00:53:51.821Z,124.43
2018-12-26T00:58:28.367Z,132.13
2018-12-26T01:00:35.515Z,126.80
2018-12-26T01:02:43.507Z,111.20
2018-12-26T01:04:51.786Z,123.17
2018-12-26T01:06:59.042Z,117.43
2018-12-26T01:09:08.024Z,112.23
2018-12-26T01:11:15.721Z,110.50
2018-12-26T01:13:22.831Z,113.83
2018-12-26T01:15:31.285Z,104.93
2018-12-26T01:17:40.293Z,108.47
2018-12-26T01:19:47.449Z,121.20
2018-12-26T01:21:59.458Z,119.33
2018-12-26T01:24:17.533Z,105.97
2018-12-26T01:26:25.376Z,112.93
2018-12-26T01:28:34.494Z,111.63
2018-12-26T01:30:41.888Z,100.80
2018-12-26T01:32:49.003Z,109.63
2018-12-26T01:34:56.873Z,108.93
2018-12-26T01:37:05.516Z,109.50
2018-12-26T01:39:15.403Z,99.90
2018-12-26T01:41:30.674Z,105.77
2018-12-26T01:43:41.526Z,110.53
2018-12-26T01:45:54.676Z,114.43
2018-12-26T01:48:18.439Z,116.10
2018-12-26T01:50:27.734Z,100.93
2018-12-26T01:52:39.338Z,104.63
2018-12-26T01:57:15.394Z,109.23
2018-12-26T01:59:24.424Z,116.40
2018-12-26T02:01:37.254Z,113.37
2018-12-26T02:03:50.412Z,115.03
2018-12-26T02:08:17.293Z,112.97
2018-12-26T02:10:29.071Z,104.50
2018-12-26T02:12:37.885Z,104.30
2018-12-26T02:14:48.841Z,101.87
2018-12-26T02:16:57.562Z,99.30
2018-12-26T02:19:05.277Z,103.53
2018-12-26T02:21:13.401Z,96.77
2018-12-26T02:23:22.525Z,102.77
2018-12-26T02:25:29.862Z,113.53
2018-12-26T02:27:39.427Z,107.53
2018-12-26T02:29:49.537Z,107.20
2018-12-26T02:32:00.201Z,103.43
2018-12-26T02:34:07.482Z,112.90
2018-12-26T02:36:15.265Z,115.23
2018-12-26T02:38:24.865Z,111.50
2018-12-26T02:40:34.857Z,110.23
2018-12-26T02:42:42.059Z,110.60
2018-12-26T02:44:51.803Z,110.43
2018-12-26T02:46:59.867Z,106.93
2018-12-26T02:49:08.725Z,117.33
2018-12-26T02:51:15.918Z,112.73
2018-12-26T02:53:23.198Z,108.87
2018-12-26T02:55:30.544Z,117.33
2018-12-26T02:57:37.614Z,122.90
2018-12-26T02:59:46.419Z,120.80
2018-12-26T03:01:55.564Z,120.90
2018-12-26T03:04:04.086Z,119.13
2018-12-26T03:06:11.588Z,107.00
2018-12-26T03:08:18.883Z,119.10
2018-12-26T03:10:27.090Z,111.40
2018-12-26T03:12:34.244Z,106.20
2018-12-26T03:14:41.570Z,103.27
2018-12-26T03:16:49.640Z,107.33
2018-12-26T03:18:56.992Z,102.40
2018-12-26T03:21:14.713Z,108.60
2018-12-26T03:23:21.922Z,106.60
2018-12-26T03:25:29.485Z,100.93
2018-12-26T03:27:40.616Z,104.73
2018-12-26T03:29:49.611Z,99.00
2018-12-26T03:31:57.293Z,98.33
2018-12-26T03:34:10.903Z,117.27
2018-12-26T03:36:18.968Z,113.93
2018-12-26T03:38:29.705Z,109.30
2018-12-26T03:40:37.386Z,124.17
2018-12-26T03:42:45.264Z,110.43
2018-12-26T03:45:00.900Z,116.50
2018-12-26T03:47:09.295Z,110.53
2018-12-26T03:49:17.344Z,110.43
2018-12-26T03:51:25.446Z,112.47
2018-12-26T03:53:33.471Z,111.80
2018-12-26T03:55:41.637Z,107.57
2018-12-26T03:57:49.153Z,105.53
2018-12-26T03:59:57.753Z,112.30
2018-12-26T04:02:05.656Z,113.80
2018-12-26T04:04:13.624Z,105.90
2018-12-26T04:06:20.636Z,106.67
2018-12-26T04:08:29.114Z,115.43
2018-12-26T04:10:37.403Z,113.07
2018-12-26T04:12:44.682Z,110.63
2018-12-26T04:14:52.033Z,105.33
2018-12-26T04:17:00.131Z,97.87
2018-12-26T04:19:08.365Z,106.73
2018-12-26T04:21:15.904Z,100.00
2018-12-26T04:23:24.104Z,101.73
2018-12-26T04:25:31.478Z,109.73
2018-12-26T04:27:40.107Z,102.73
2018-12-26T04:29:48.933Z,110.40
2018-12-26T04:31:57.631Z,110.10
2018-12-26T04:34:06.378Z,100.00
2018-12-26T04:36:16.547Z,103.13
2018-12-26T04:38:26.552Z,103.83
2018-12-26T04:40:34.630Z,108.47
2018-12-26T04:42:43.053Z,108.87
2018-12-26T04:44:52.547Z,108.33
2018-12-26T04:47:01.997Z,102.03
2018-12-26T04:49:10.105Z,104.57
2018-12-26T04:51:17.496Z,104.87
2018-12-26T04:53:24.875Z,97.10
2018-12-26T04:55:32.128Z,109.30
2018-12-26T04:57:39.594Z,107.37
2018-12-26T04:59:47.433Z,107.67
2018-12-26T05:01:54.655Z,116.67
2018-12-26T05:04:03.177Z,110.27
2018-12-26T05:06:11.264Z,111.27
2018-12-26T05:08:19.272Z,112.77
2018-12-26T05:10:26.560Z,110.70
2018-12-26T05:12:34.511Z,106.40
2018-12-26T05:14:42.539Z,107.67
2018-12-26T05:16:50.592Z,108.57
2018-12-26T05:18:58.250Z,106.97
2018-12-26T05:21:05.441Z,106.47
2018-12-26T05:23:13.359Z,110.90
2018-12-26T05:25:20.621Z,101.53
2018-12-26T05:27:34.208Z,101.23
2018-12-26T05:29:37.509Z,106.27
2018-12-26T05:31:44.874Z,107.63
2018-12-26T05:33:52.280Z,113.40
2018-12-26T05:36:00.921Z,108.13
2018-12-26T05:38:08.070Z,104.90
2018-12-26T05:40:16.224Z,99.20
2018-12-26T05:42:24.137Z,98.03
2018-12-26T05:44:32.516Z,97.87
2018-12-26T05:46:39.738Z,94.27
2018-12-26T05:48:47.128Z,86.93
2018-12-26T05:50:55.191Z,84.40
2018-12-26T05:53:02.592Z,94.13
2018-12-26T05:55:09.767Z,93.80
2018-12-26T05:57:17.668Z,96.60
2018-12-26T05:59:24.649Z,96.10
2018-12-26T06:01:31.865Z,104.87
2018-12-26T06:03:39.071Z,107.03
2018-12-26T06:05:46.244Z,101.90
2018-12-26T06:07:53.138Z,93.43
2018-12-26T06:09:59.820Z,100.47
2018-12-26T06:12:06.952Z,105.57
2018-12-26T06:14:14.235Z,110.13
2018-12-26T06:16:24.251Z,97.30
2018-12-26T06:18:31.389Z,102.70
2018-12-26T06:20:39.249Z,105.80
2018-12-26T06:22:45.994Z,103.50
2018-12-26T06:24:53.917Z,103.97
2018-12-26T06:27:00.620Z,104.03
2018-12-26T06:29:07.371Z,110.17
2018-12-26T06:31:14.932Z,114.17
2018-12-26T06:33:21.947Z,109.53
2018-12-26T06:35:29.012Z,115.03
2018-12-26T06:37:36.232Z,113.27
2018-12-26T06:39:43.868Z,114.60
2018-12-26T06:41:50.632Z,113.47
2018-12-26T06:43:58.056Z,112.83
2018-12-26T06:46:04.813Z,112.73
2018-12-26T06:48:12.460Z,114.77
2018-12-26T06:50:21.030Z,104.57
2018-12-26T06:52:29.129Z,97.40
2018-12-26T06:54:36.599Z,91.63
2018-12-26T06:56:43.672Z,87.93
2018-12-26T06:58:50.909Z,84.60
2018-12-26T07:00:59.283Z,81.90
2018-12-26T07:03:08.792Z,81.10
2018-12-26T07:05:16.186Z,83.00
2018-12-26T07:07:24.380Z,89.13
2018-12-26T07:09:31.859Z,98.03
2018-12-26T07:11:39.905Z,102.43
2018-12-26T07:13:48.674Z,106.40
2018-12-26T07:15:56.499Z,103.70
2018-12-26T07:18:04.321Z,106.80
2018-12-26T07:20:11.652Z,103.83
2018-12-26T07:22:18.882Z,95.77
2018-12-26T07:24:26.197Z,101.87
2018-12-26T07:26:34.136Z,105.83
2018-12-26T07:28:41.675Z,104.63
2018-12-26T07:30:49.203Z,106.27
2018-12-26T07:32:56.453Z,104.47
2018-12-26T07:35:03.767Z,107.80
2018-12-26T07:37:11.079Z,105.13
2018-12-26T07:39:18.119Z,105.30
2018-12-26T07:41:25.324Z,109.93
2018-12-26T07:43:34.058Z,108.27
2018-12-26T07:45:41.175Z,111.60
2018-12-26T07:47:48.452Z,114.30
2018-12-26T07:49:55.599Z,100.70
2018-12-26T07:52:03.503Z,110.77
2018-12-26T07:54:11.103Z,105.17
2018-12-26T07:56:18.975Z,107.27
2018-12-26T07:58:26.237Z,105.93
2018-12-26T08:00:33.441Z,102.40
2018-12-26T08:02:40.862Z,97.13
2018-12-26T08:04:48.283Z,101.67
2018-12-26T08:06:55.219Z,91.67
2018-12-26T08:09:02.640Z,91.33
2018-12-26T08:11:10.288Z,85.87
2018-12-26T08:13:17.457Z,82.63
2018-12-26T08:15:24.543Z,79.37
2018-12-26T08:17:32.626Z,79.33
2018-12-26T08:19:39.914Z,78.53
2018-12-26T08:21:46.979Z,76.17
2018-12-26T08:23:54.203Z,84.10
2018-12-26T08:26:01.438Z,93.70
2018-12-26T08:28:08.593Z,93.10
2018-12-26T08:30:15.922Z,100.50
2018-12-26T08:32:23.988Z,100.17
2018-12-26T08:34:31.539Z,105.03
2018-12-26T08:36:39.594Z,100.57
2018-12-26T08:38:47.506Z,104.53
2018-12-26T08:40:54.627Z,104.57
2018-12-26T08:43:01.979Z,102.33
2018-12-26T08:45:09.518Z,103.70
2018-12-26T08:47:18.133Z,107.23
2018-12-26T08:49:25.143Z,108.83
2018-12-26T08:51:32.935Z,105.27
2018-12-26T08:53:40.165Z,110.83
2018-12-26T08:55:47.413Z,112.23
2018-12-26T08:57:54.444Z,109.77
2018-12-26T09:00:01.520Z,114.17
2018-12-26T09:02:08.996Z,114.70
2018-12-26T09:04:16.186Z,114.27
2018-12-26T09:06:23.205Z,116.07
2018-12-26T09:08:30.495Z,116.27
2018-12-26T09:10:37.765Z,111.63
2018-12-26T09:12:45.068Z,113.10
2018-12-26T09:14:52.150Z,98.77
2018-12-26T09:16:59.873Z,90.00
2018-12-26T09:19:06.907Z,87.90
2018-12-26T09:21:14.146Z,83.63
2018-12-26T09:23:21.446Z,80.47
2018-12-26T09:25:29.247Z,78.27
2018-12-26T09:27:37.694Z,77.00
2018-12-26T09:29:45.001Z,77.13
2018-12-26T09:31:52.024Z,76.87
2018-12-26T09:33:59.290Z,77.23
2018-12-26T09:36:06.829Z,94.20
2018-12-26T09:38:14.156Z,102.53
2018-12-26T09:40:21.394Z,105.43
2018-12-26T09:42:28.866Z,110.30
2018-12-26T09:44:35.908Z,107.90
2018-12-26T09:46:43.168Z,114.73
2018-12-26T09:48:50.438Z,109.57
2018-12-26T09:50:57.451Z,110.33
2018-12-26T09:53:04.507Z,111.97
2018-12-26T09:55:11.836Z,115.67
2018-12-26T09:57:18.811Z,114.47
2018-12-26T09:59:26.237Z,111.50
2018-12-26T10:01:33.483Z,113.50
2018-12-26T10:03:40.537Z,117.27
2018-12-26T10:05:47.919Z,124.17
2018-12-26T10:07:54.952Z,120.10
2018-12-26T10:10:02.096Z,117.63
2018-12-26T10:12:09.229Z,117.40
2018-12-26T10:14:16.494Z,115.77
2018-12-26T10:16:23.943Z,116.77
2018-12-26T10:18:31.353Z,114.80
2018-12-26T10:20:39.076Z,112.47
2018-12-26T10:22:46.434Z,102.00
2018-12-26T10:24:53.470Z,90.37
2018-12-26T10:27:01.178Z,87.97
2018-12-26T10:29:08.165Z,84.03
2018-12-26T10:31:15.348Z,79.87
2018-12-26T10:33:22.749Z,77.33
2018-12-26T10:35:29.818Z,79.73
2018-12-26T10:37:37.158Z,79.03
2018-12-26T10:39:44.401Z,76.40
2018-12-26T10:41:51.645Z,78.83
2018-12-26T10:43:59.051Z,73.37
2018-12-26T10:46:06.154Z,74.50
2018-12-26T10:48:13.263Z,84.13
2018-12-26T10:50:20.581Z,108.57
2018-12-26T10:52:27.842Z,109.83
2018-12-26T10:54:35.322Z,117.20
2018-12-26T10:56:42.730Z,116.30
2018-12-26T10:58:49.765Z,119.60
2018-12-26T11:00:56.949Z,111.97
2018-12-26T11:03:04.781Z,107.50
2018-12-26T11:05:12.126Z,107.07
2018-12-26T11:07:19.405Z,115.30
2018-12-26T11:09:26.876Z,108.30
2018-12-26T11:11:34.200Z,113.30
2018-12-26T11:13:41.577Z,118.07
2018-12-26T11:15:48.601Z,115.60
2018-12-26T11:17:55.777Z,114.77
2018-12-26T11:20:04.495Z,118.47
2018-12-26T11:22:11.712Z,116.27
2018-12-26T11:24:18.811Z,118.40
2018-12-26T11:26:26.645Z,119.90
2018-12-26T11:28:33.633Z,121.70
2018-12-26T11:30:41.019Z,119.67
2018-12-26T11:32:48.341Z,116.47
2018-12-26T11:34:56.477Z,115.80
2018-12-26T11:37:03.696Z,118.40
2018-12-26T11:39:10.919Z,115.70
2018-12-26T11:41:18.775Z,109.23
2018-12-26T11:43:26.010Z,107.97
2018-12-26T11:45:33.357Z,103.20
2018-12-26T11:47:40.584Z,101.00
2018-12-26T11:49:47.798Z,99.43
2018-12-26T11:51:55.042Z,101.63
2018-12-26T11:54:02.298Z,92.47
2018-12-26T11:56:09.397Z,86.63
2018-12-26T11:58:16.376Z,76.90
2018-12-26T12:00:23.551Z,79.73
2018-12-26T12:02:30.980Z,79.67
2018-12-26T12:04:38.425Z,78.40
2018-12-26T12:06:45.387Z,83.50
2018-12-26T12:08:52.713Z,77.83
2018-12-26T12:11:00.222Z,77.47
2018-12-26T12:13:07.486Z,72.30
2018-12-26T12:15:14.810Z,72.53
2018-12-26T12:17:21.841Z,97.83
2018-12-26T12:19:28.951Z,113.07
2018-12-26T12:21:36.588Z,102.97
2018-12-26T12:23:43.952Z,116.63
2018-12-26T12:25:51.385Z,117.10
2018-12-26T12:27:58.655Z,127.03
2018-12-26T12:30:05.792Z,121.27
2018-12-26T12:32:12.992Z,124.93
2018-12-26T12:34:20.330Z,105.43
2018-12-26T12:36:27.698Z,91.73
2018-12-26T12:38:35.339Z,82.57
2018-12-26T12:40:42.733Z,78.47
2018-12-26T12:42:50.134Z,81.33
2018-12-26T12:44:57.489Z,77.70
2018-12-26T12:47:04.859Z,80.93
2018-12-26T12:49:12.202Z,78.90
2018-12-26T12:51:19.336Z,78.90
2018-12-26T12:53:26.695Z,76.67
2018-12-26T12:55:33.807Z,76.07
2018-12-26T12:57:40.989Z,73.27
2018-12-26T12:59:49.659Z,73.43
2018-12-26T13:01:57.421Z,72.60
2018-12-26T13:04:04.548Z,69.77
2018-12-26T13:06:11.960Z,82.27
2018-12-26T13:08:19.186Z,69.43
2018-12-26T13:10:26.519Z,75.37
2018-12-26T13:12:33.910Z,69.03
2018-12-26T13:14:41.015Z,68.50
2018-12-26T13:16:48.201Z,71.63
2018-12-26T13:18:55.584Z,70.13
2018-12-26T13:21:02.891Z,63.30
2018-12-26T13:23:10.235Z,65.60
2018-12-26T13:25:17.189Z,110.27
2018-12-26T13:27:24.376Z,79.03
2018-12-26T13:29:31.691Z,119.23
2018-12-26T13:31:39.175Z,108.70
2018-12-26T13:33:46.045Z,114.93
2018-12-26T13:35:53.828Z,127.13
2018-12-26T13:38:00.977Z,114.00
2018-12-26T13:40:08.186Z,90.47
2018-12-26T13:42:15.409Z,78.07
2018-12-26T13:44:23.496Z,76.87
2018-12-26T13:46:33.843Z,70.27
2018-12-26T13:48:39.777Z,63.60
2018-12-26T13:50:46.855Z,58.27
2018-12-26T13:52:53.939Z,58.30
2018-12-26T13:55:01.154Z,55.50
2018-12-26T13:57:08.724Z,53.67
2018-12-26T13:59:15.708Z,53.93
2018-12-26T14:01:22.894Z,53.70
2018-12-26T14:03:30.298Z,53.40
2018-12-26T14:05:37.243Z,54.37
2018-12-26T14:07:44.456Z,53.83
2018-12-26T14:09:51.715Z,53.80
2018-12-26T14:11:59.379Z,50.23
2018-12-26T14:14:06.756Z,52.37
2018-12-26T14:16:14.871Z,52.73
2018-12-26T14:18:21.979Z,49.33
2018-12-26T14:20:29.246Z,51.80
2018-12-26T14:22:37.186Z,50.97
2018-12-26T14:24:44.353Z,48.80
2018-12-26T14:26:51.737Z,45.60
2018-12-26T14:28:59.369Z,43.93
2018-12-26T14:31:06.634Z,43.93
2018-12-26T14:33:14.584Z,42.20
2018-12-26T14:35:22.210Z,41.60
2018-12-26T14:37:29.452Z,41.33
2018-12-26T14:39:37.163Z,40.53
2018-12-26T14:41:44.132Z,37.73
2018-12-26T14:43:51.329Z,37.80
2018-12-26T14:45:58.297Z,38.67
2018-12-26T14:48:05.573Z,39.07
2018-12-26T14:50:12.246Z,38.27
2018-12-26T14:52:18.944Z,37.70
2018-12-26T14:54:26.016Z,38.50
2018-12-26T14:56:33.289Z,36.87
2018-12-26T14:58:40.640Z,38.20
2018-12-26T15:00:49.246Z,38.70
2018-12-26T15:02:56.354Z,37.30
2018-12-26T15:05:03.726Z,36.93
2018-12-26T15:07:11.132Z,36.00
2018-12-26T15:09:18.161Z,36.87
2018-12-26T15:11:26.150Z,37.17
2018-12-26T15:13:33.357Z,35.60
2018-12-26T15:15:40.619Z,35.83
2018-12-26T15:17:47.313Z,35.00
2018-12-26T15:19:54.579Z,33.70
2018-12-26T15:22:01.691Z,34.40
2018-12-26T15:24:08.342Z,32.77
2018-12-26T15:26:15.308Z,31.27
2018-12-26T15:28:22.546Z,31.97
2018-12-26T15:30:30.544Z,30.03
2018-12-26T15:32:37.943Z,31.00
2018-12-26T15:34:45.380Z,28.53
2018-12-26T15:36:54.052Z,27.67
2018-12-26T15:39:01.557Z,29.77
2018-12-26T15:41:10.293Z,28.30
2018-12-26T15:43:17.779Z,28.47
2018-12-26T15:45:25.806Z,28.40
2018-12-26T15:47:33.070Z,26.73
2018-12-26T15:49:40.857Z,29.17
2018-12-26T15:51:48.190Z,25.03
2018-12-26T15:53:56.205Z,26.50
2018-12-26T15:56:03.659Z,25.60
2018-12-26T15:58:10.463Z,26.23
2018-12-26T16:00:17.762Z,26.17
2018-12-26T16:02:24.794Z,25.17
2018-12-26T16:04:42.837Z,25.93
2018-12-26T16:07:02.923Z,39.53
2018-12-26T16:09:13.264Z,40.57
2018-12-26T16:11:20.066Z,51.70
2018-12-26T16:13:27.166Z,45.80
2018-12-26T16:15:39.642Z,47.87
2018-12-26T16:17:46.999Z,53.80
2018-12-26T16:19:54.567Z,49.37
2018-12-26T16:22:01.960Z,45.87
2018-12-26T16:24:09.249Z,42.90
2018-12-26T16:26:16.707Z,40.90
2018-12-26T16:28:23.789Z,45.93
2018-12-26T16:30:36.446Z,49.07
2018-12-26T16:32:56.026Z,56.47
2018-12-26T16:35:11.659Z,45.43
2018-12-26T16:37:18.878Z,44.53
2018-12-26T16:39:26.145Z,40.50
2018-12-26T16:41:33.464Z,62.00
2018-12-26T16:43:40.517Z,62.10
2018-12-26T16:45:47.590Z,53.77
2018-12-26T16:47:54.837Z,55.77
2018-12-26T16:50:02.322Z,64.97
2018-12-26T16:52:09.358Z,49.43
2018-12-26T16:54:16.620Z,56.23
2018-12-26T16:56:33.519Z,62.87
2018-12-26T16:58:40.852Z,71.90
2018-12-26T17:00:54.986Z,70.37
2018-12-26T17:03:36.329Z,69.77
2018-12-26T17:05:43.672Z,69.10
2018-12-26T17:07:50.875Z,54.97
2018-12-26T17:09:59.196Z,51.07
2018-12-26T17:12:27.736Z,51.77
2018-12-26T17:14:35.229Z,68.40
2018-12-26T17:16:42.799Z,67.07
2018-12-26T17:19:16.970Z,73.17
2018-12-26T17:21:27.979Z,60.23
2018-12-26T17:23:35.224Z,58.63
2018-12-26T17:25:42.319Z,69.43
2018-12-26T17:27:49.638Z,55.50
2018-12-26T17:29:57.297Z,63.47
2018-12-26T17:32:04.526Z,55.03
2018-12-26T17:34:11.643Z,59.77
2018-12-26T17:36:19.027Z,52.13
2018-12-26T17:38:29.554Z,50.40
2018-12-26T17:40:45.739Z,63.97
2018-12-26T17:43:06.829Z,67.23
2018-12-26T17:45:21.427Z,67.27
2018-12-26T17:47:28.596Z,72.33
2018-12-26T17:49:36.019Z,75.33
2018-12-26T17:51:43.374Z,77.73
2018-12-26T17:54:08.625Z,78.07
2018-12-26T17:56:30.732Z,83.03
2018-12-26T17:58:41.884Z,80.87
2018-12-26T18:01:14.843Z,85.40
2018-12-26T18:03:22.429Z,88.10
2018-12-26T18:05:35.018Z,88.47
2018-12-26T18:07:42.213Z,84.93
2018-12-26T18:09:49.748Z,89.30
2018-12-26T18:12:11.296Z,90.67
2018-12-26T18:14:06.094Z,92.47
2018-12-26T18:16:19.301Z,97.13
2018-12-26T18:18:26.531Z,93.13
2018-12-26T18:20:49.322Z,97.50
2018-12-26T18:23:10.532Z,99.43
2018-12-26T18:25:24.739Z,101.17
2018-12-26T18:27:32.992Z,104.33
2018-12-26T18:29:41.108Z,104.57
2018-12-26T18:31:48.359Z,104.80
2018-12-26T18:33:56.904Z,100.50
2018-12-26T18:36:04.407Z,101.33
2018-12-26T18:38:11.638Z,98.13
2018-12-26T18:40:18.810Z,99.23
2018-12-26T18:42:27.479Z,100.70
2018-12-26T18:44:40.622Z,100.40
2018-12-26T18:46:48.443Z,97.70
2018-12-26T18:48:56.554Z,105.67
2018-12-26T18:51:03.922Z,103.87
2018-12-26T18:53:11.790Z,98.37
2018-12-26T18:55:23.071Z,104.07
2018-12-26T18:57:31.252Z,105.93
2018-12-26T18:59:38.312Z,104.50
2018-12-26T19:01:45.457Z,105.30
2018-12-26T19:03:52.456Z,104.60
2018-12-26T19:05:59.572Z,108.67
2018-12-26T19:08:09.535Z,112.43
2018-12-26T19:10:16.446Z,104.60
2018-12-26T19:12:23.752Z,112.57
2018-12-26T19:14:31.042Z,107.83
2018-12-26T19:16:38.326Z,109.40
2018-12-26T19:18:45.617Z,113.73
2018-12-26T19:20:52.735Z,117.57
2018-12-26T19:22:59.929Z,116.13
2018-12-26T19:25:07.321Z,114.77
2018-12-26T19:27:14.405Z,114.00
2018-12-26T19:29:21.583Z,116.60
2018-12-26T19:31:28.525Z,110.47
2018-12-26T19:33:36.534Z,94.50
2018-12-26T19:35:44.820Z,80.17
2018-12-26T19:37:52.440Z,78.57
2018-12-26T19:40:00.166Z,75.17
2018-12-26T19:42:07.472Z,71.07
2018-12-26T19:44:14.710Z,69.57
2018-12-26T19:46:22.087Z,65.67
2018-12-26T19:48:29.380Z,63.23
2018-12-26T19:50:36.513Z,64.80
2018-12-26T19:52:48.805Z,69.93
2018-12-26T19:54:56.652Z,64.70
2018-12-26T19:57:10.234Z,79.33
2018-12-26T19:59:19.016Z,82.30
2018-12-26T20:01:26.187Z,82.37
2018-12-26T20:03:33.472Z,93.43
2018-12-26T20:05:40.938Z,84.63
2018-12-26T20:07:48.206Z,78.83
2018-12-26T20:09:55.252Z,89.17
2018-12-26T20:12:07.501Z,80.57
2018-12-26T20:14:15.014Z,91.30
2018-12-26T20:16:22.975Z,88.53
2018-12-26T20:18:30.135Z,90.07
2018-12-26T20:20:37.445Z,93.47
2018-12-26T20:22:44.521Z,92.43
2018-12-26T20:24:52.125Z,89.13
2018-12-26T20:26:59.906Z,92.70
2018-12-26T20:29:07.162Z,96.07
2018-12-26T20:31:14.645Z,97.07
2018-12-26T20:33:21.892Z,102.37
2018-12-26T20:35:29.276Z,94.23
2018-12-26T20:37:36.386Z,106.87
2018-12-26T20:39:43.488Z,89.67
2018-12-26T20:41:50.930Z,99.60
2018-12-26T20:43:58.827Z,103.23
2018-12-26T20:46:06.126Z,106.07
2018-12-26T20:48:13.438Z,110.93
2018-12-26T20:50:20.576Z,89.30
2018-12-26T20:52:27.803Z,83.67
2018-12-26T20:54:35.166Z,84.40
2018-12-26T20:56:42.754Z,86.30
2018-12-26T20:58:50.872Z,82.17
2018-12-26T21:00:58.140Z,77.73
2018-12-26T21:03:09.983Z,79.83
2018-12-26T21:05:20.041Z,92.83
2018-12-26T21:07:27.322Z,96.40
2018-12-26T21:09:34.471Z,104.07
2018-12-26T21:12:01.222Z,91.03
2018-12-26T21:14:08.671Z,103.87
2018-12-26T21:16:15.878Z,108.13
2018-12-26T21:18:22.943Z,107.57
2018-12-26T21:20:30.453Z,115.17
2018-12-26T21:22:41.535Z,104.43
2018-12-26T21:25:16.911Z,111.53
2018-12-26T21:27:24.984Z,102.37
2018-12-26T21:29:32.492Z,102.10
2018-12-26T21:31:39.640Z,101.43
2018-12-26T21:33:46.930Z,98.97
2018-12-26T21:35:55.093Z,99.50
2018-12-26T21:38:02.692Z,93.20
2018-12-26T21:40:10.503Z,103.37
2018-12-26T21:42:17.775Z,102.07
2018-12-26T21:44:24.947Z,107.17
2018-12-26T21:46:33.009Z,114.53
2018-12-26T21:48:41.030Z,110.77
2018-12-26T21:51:44.323Z,115.67
2018-12-26T21:54:42.577Z,115.37
2018-12-26T21:57:16.096Z,113.33
2018-12-26T21:59:23.119Z,97.77
2018-12-26T22:01:30.293Z,102.93
2018-12-26T22:03:37.275Z,113.53
2018-12-26T22:05:45.224Z,112.63
2018-12-26T22:07:52.399Z,119.10
2018-12-26T22:10:00.452Z,119.73
2018-12-26T22:12:31.534Z,116.37
2018-12-26T22:14:47.804Z,123.57
2018-12-26T22:17:11.719Z,125.03
2018-12-26T22:19:18.940Z,114.20
2018-12-26T22:21:26.735Z,118.97
2018-12-26T22:23:33.980Z,123.07
2018-12-26T22:25:41.746Z,126.13
2018-12-26T22:27:48.918Z,122.90
2018-12-26T22:29:56.187Z,121.57
2018-12-26T22:32:04.478Z,121.17
2018-12-26T22:34:11.929Z,120.60
2018-12-26T22:36:19.329Z,116.83
2018-12-26T22:38:44.539Z,122.67
2018-12-26T22:40:53.751Z,102.87
2018-12-26T22:43:11.131Z,112.17
2018-12-26T22:45:43.569Z,108.87
2018-12-26T22:47:44.583Z,96.90
2018-12-26T22:49:51.821Z,94.93
2018-12-26T22:51:59.096Z,90.43
2018-12-26T22:54:08.272Z,97.40
2018-12-26T22:56:15.317Z,93.13
2018-12-26T22:58:22.622Z,107.70
2018-12-26T23:00:42.068Z,103.40
2018-12-26T23:02:50.178Z,88.60
2018-12-26T23:04:57.660Z,90.50
2018-12-26T23:07:04.946Z,88.70
2018-12-26T23:09:12.974Z,82.83
2018-12-26T23:11:20.647Z,98.03
2018-12-26T23:13:28.299Z,86.60
2018-12-26T23:15:35.485Z,85.37
2018-12-26T23:17:42.820Z,92.53
2018-12-26T23:19:50.089Z,88.93
2018-12-26T23:21:57.187Z,95.47
2018-12-26T23:24:03.892Z,91.83
2018-12-26T23:26:11.185Z,94.33
2018-12-26T23:28:18.865Z,90.43
2018-12-26T23:30:25.717Z,97.27
2018-12-26T23:32:32.997Z,102.30
2018-12-26T23:34:40.324Z,95.20
2018-12-26T23:36:48.107Z,96.13
2018-12-26T23:38:55.414Z,94.87
2018-12-26T23:41:02.536Z,97.10
2018-12-26T23:43:09.879Z,93.53
2018-12-26T23:45:17.303Z,106.17
2018-12-26T23:47:25.190Z,102.30
2018-12-26T23:49:32.492Z,112.13
2018-12-26T23:51:39.787Z,110.73
2018-12-26T23:53:47.130Z,106.17
2018-12-26T23:55:54.458Z,106.10
2018-12-26T23:58:01.729Z,118.03
